Annabella, Utah
Current Conditions -  °F | °C
As of 9:15 AM on Monday 22 Dec 2014 (Local Time) from KDTA Reporting Station
Overcast Overcast  
Wind Chill: 33°   Ceiling: 400
Heat Index: 39°   Visibility: 10mi
Dew Point: 38°   Wind: 9mph
Humidity: 99%   Direction: 20°NNE
Pressure: 30.02"   Gusts: NA
Location:  38.71°N, 112.06°W
Report Text: KDTA 221615Z AUTO 02008KT 10SM OVC004 04/04 A3002 RMK AO1 T00380036
Loading
Personal Weather Stations






























Interactive Weather Map New forecast layout! Learn more

10-Day Weather Forecast

Advertisements
Track Severe Weather on mobile